sensor_id;sensor_type;location;lat;lon;timestamp;temperature;humidity
35746;DHT22;21870;42.812;74.628;2023-03-11T00:01:37;14.90;99.90
35746;DHT22;21870;42.812;74.628;2023-03-11T00:04:06;14.90;99.90
35746;DHT22;21870;42.812;74.628;2023-03-11T00:06:34;15.00;99.90
35746;DHT22;21870;42.812;74.628;2023-03-11T00:09:00;15.00;99.90
35746;DHT22;21870;42.812;74.628;2023-03-11T00:11:26;15.00;99.90
35746;DHT22;21870;42.812;74.628;2023-03-11T00:13:52;15.00;99.90
35746;DHT22;21870;42.812;74.628;2023-03-11T00:16:18;15.10;99.90
35746;DHT22;21870;42.812;74.628;2023-03-11T00:18:44;15.10;99.90
35746;DHT22;21870;42.812;74.628;2023-03-11T00:21:15;15.00;99.90
35746;DHT22;21870;42.812;74.628;2023-03-11T00:23:41;15.10;99.90
35746;DHT22;21870;42.812;74.628;2023-03-11T00:26:08;15.20;99.90
35746;DHT22;21870;42.812;74.628;2023-03-11T00:28:37;15.30;99.90
35746;DHT22;21870;42.812;74.628;2023-03-11T00:31:03;15.20;99.90
35746;DHT22;21870;42.812;74.628;2023-03-11T00:33:29;15.20;99.90
35746;DHT22;21870;42.812;74.628;2023-03-11T00:35:55;15.00;99.90
35746;DHT22;21870;42.812;74.628;2023-03-11T00:38:22;14.90;99.90
35746;DHT22;21870;42.812;74.628;2023-03-11T00:40:48;14.80;99.90
35746;DHT22;21870;42.812;74.628;2023-03-11T00:43:18;14.80;99.90
35746;DHT22;21870;42.812;74.628;2023-03-11T00:45:44;14.90;99.90
35746;DHT22;21870;42.812;74.628;2023-03-11T00:48:11;15.00;99.90
35746;DHT22;21870;42.812;74.628;2023-03-11T00:50:38;15.00;99.90
35746;DHT22;21870;42.812;74.628;2023-03-11T00:53:05;14.80;99.90
35746;DHT22;21870;42.812;74.628;2023-03-11T00:55:35;14.80;99.90
35746;DHT22;21870;42.812;74.628;2023-03-11T00:58:03;14.80;99.90
35746;DHT22;21870;42.812;74.628;2023-03-11T01:00:30;14.80;99.90
35746;DHT22;21870;42.812;74.628;2023-03-11T01:02:58;14.70;99.90
35746;DHT22;21870;42.812;74.628;2023-03-11T01:05:27;14.50;99.90
35746;DHT22;21870;42.812;74.628;2023-03-11T01:07:53;14.40;99.90
35746;DHT22;21870;42.812;74.628;2023-03-11T01:10:20;14.40;99.90
35746;DHT22;21870;42.812;74.628;2023-03-11T01:12:46;14.50;99.90
35746;DHT22;21870;42.812;74.628;2023-03-11T01:15:35;14.50;99.90
35746;DHT22;21870;42.812;74.628;2023-03-11T01:18:03;14.60;99.90
35746;DHT22;21870;42.812;74.628;2023-03-11T01:20:29;14.60;99.90
35746;DHT22;21870;42.812;74.628;2023-03-11T01:22:56;14.60;99.90
35746;DHT22;21870;42.812;74.628;2023-03-11T01:25:23;14.70;99.90
35746;DHT22;21870;42.812;74.628;2023-03-11T01:27:49;14.80;99.90
35746;DHT22;21870;42.812;74.628;2023-03-11T01:30:21;15.00;99.90
35746;DHT22;21870;42.812;74.628;2023-03-11T01:32:48;15.10;99.90
35746;DHT22;21870;42.812;74.628;2023-03-11T01:35:16;14.90;99.90
35746;DHT22;21870;42.812;74.628;2023-03-11T01:37:42;14.90;99.90
35746;DHT22;21870;42.812;74.628;2023-03-11T01:40:17;14.90;99.90
35746;DHT22;21870;42.812;74.628;2023-03-11T01:42:44;14.70;99.90
35746;DHT22;21870;42.812;74.628;2023-03-11T01:46:21;14.60;99.90
35746;DHT22;21870;42.812;74.628;2023-03-11T01:48:22;14.60;99.90
35746;DHT22;21870;42.812;74.628;2023-03-11T01:50:49;14.60;99.90
35746;DHT22;21870;42.812;74.628;2023-03-11T01:53:16;14.60;99.90
35746;DHT22;21870;42.812;74.628;2023-03-11T01:55:43;14.50;99.90
35746;DHT22;21870;42.812;74.628;2023-03-11T01:58:17;14.70;99.90
35746;DHT22;21870;42.812;74.628;2023-03-11T02:00:45;14.90;99.90
35746;DHT22;21870;42.812;74.628;2023-03-11T02:03:23;15.20;99.90
35746;DHT22;21870;42.812;74.628;2023-03-11T02:05:52;15.50;99.90
35746;DHT22;21870;42.812;74.628;2023-03-11T02:08:19;15.60;99.90
35746;DHT22;21870;42.812;74.628;2023-03-11T02:10:46;15.60;99.90
35746;DHT22;21870;42.812;74.628;2023-03-11T02:13:13;15.70;99.90
35746;DHT22;21870;42.812;74.628;2023-03-11T02:15:40;15.80;99.90
35746;DHT22;21870;42.812;74.628;2023-03-11T02:18:06;15.90;99.90
35746;DHT22;21870;42.812;74.628;2023-03-11T02:20:51;15.90;99.90
35746;DHT22;21870;42.812;74.628;2023-03-11T02:23:21;16.00;99.90
35746;DHT22;21870;42.812;74.628;2023-03-11T02:26:00;16.20;99.90
35746;DHT22;21870;42.812;74.628;2023-03-11T02:28:28;16.40;99.90
35746;DHT22;21870;42.812;74.628;2023-03-11T02:30:56;16.50;99.90
35746;DHT22;21870;42.812;74.628;2023-03-11T02:33:25;16.80;99.90
35746;DHT22;21870;42.812;74.628;2023-03-11T02:35:53;17.00;99.90
35746;DHT22;21870;42.812;74.628;2023-03-11T02:38:19;17.20;99.90
35746;DHT22;21870;42.812;74.628;2023-03-11T02:40:58;17.40;99.90
35746;DHT22;21870;42.812;74.628;2023-03-11T02:43:34;17.60;99.90
35746;DHT22;21870;42.812;74.628;2023-03-11T02:46:03;17.90;98.20
35746;DHT22;21870;42.812;74.628;2023-03-11T02:48:31;18.10;97.80
35746;DHT22;21870;42.812;74.628;2023-03-11T02:50:58;18.40;96.60
35746;DHT22;21870;42.812;74.628;2023-03-11T02:53:26;18.60;95.60
35746;DHT22;21870;42.812;74.628;2023-03-11T02:55:53;18.80;94.90
35746;DHT22;21870;42.812;74.628;2023-03-11T02:58:20;19.00;93.30
35746;DHT22;21870;42.812;74.628;2023-03-11T03:00:47;19.20;92.90
35746;DHT22;21870;42.812;74.628;2023-03-11T03:03:13;19.50;91.90
35746;DHT22;21870;42.812;74.628;2023-03-11T03:05:39;19.70;91.80
35746;DHT22;21870;42.812;74.628;2023-03-11T03:08:05;19.80;92.00
35746;DHT22;21870;42.812;74.628;2023-03-11T03:10:31;20.10;91.50
35746;DHT22;21870;42.812;74.628;2023-03-11T03:12:57;20.20;91.10
35746;DHT22;21870;42.812;74.628;2023-03-11T03:15:23;20.40;90.40
35746;DHT22;21870;42.812;74.628;2023-03-11T03:17:49;20.50;90.40
35746;DHT22;21870;42.812;74.628;2023-03-11T03:20:16;20.70;90.20
35746;DHT22;21870;42.812;74.628;2023-03-11T03:22:42;20.80;90.10
35746;DHT22;21870;42.812;74.628;2023-03-11T03:25:09;20.90;89.90
35746;DHT22;21870;42.812;74.628;2023-03-11T03:27:36;21.00;90.10
35746;DHT22;21870;42.812;74.628;2023-03-11T03:30:03;21.20;90.10
35746;DHT22;21870;42.812;74.628;2023-03-11T03:32:29;21.30;89.70
35746;DHT22;21870;42.812;74.628;2023-03-11T03:34:55;21.50;89.90
35746;DHT22;21870;42.812;74.628;2023-03-11T03:37:25;21.50;88.90
35746;DHT22;21870;42.812;74.628;2023-03-11T03:39:52;21.60;88.20
35746;DHT22;21870;42.812;74.628;2023-03-11T03:42:18;21.80;88.30
35746;DHT22;21870;42.812;74.628;2023-03-11T03:44:44;22.10;89.00
35746;DHT22;21870;42.812;74.628;2023-03-11T03:47:10;22.20;88.70
35746;DHT22;21870;42.812;74.628;2023-03-11T03:49:37;22.20;88.20
35746;DHT22;21870;42.812;74.628;2023-03-11T03:52:07;22.40;88.40
35746;DHT22;21870;42.812;74.628;2023-03-11T03:54:33;22.50;87.90
35746;DHT22;21870;42.812;74.628;2023-03-11T03:57:00;22.60;87.10
35746;DHT22;21870;42.812;74.628;2023-03-11T03:59:26;22.80;87.40
35746;DHT22;21870;42.812;74.628;2023-03-11T04:01:52;22.90;87.40
35746;DHT22;21870;42.812;74.628;2023-03-11T04:04:18;23.00;87.20
35746;DHT22;21870;42.812;74.628;2023-03-11T04:06:44;23.20;86.30
35746;DHT22;21870;42.812;74.628;2023-03-11T04:09:11;23.40;86.20
35746;DHT22;21870;42.812;74.628;2023-03-11T04:11:37;23.60;85.20
35746;DHT22;21870;42.812;74.628;2023-03-11T04:14:04;23.70;84.70
35746;DHT22;21870;42.812;74.628;2023-03-11T04:16:30;23.90;83.10
35746;DHT22;21870;42.812;74.628;2023-03-11T04:18:56;24.00;81.90
35746;DHT22;21870;42.812;74.628;2023-03-11T04:21:23;24.10;81.00
35746;DHT22;21870;42.812;74.628;2023-03-11T04:23:49;24.20;80.30
35746;DHT22;21870;42.812;74.628;2023-03-11T04:26:15;24.30;79.40
35746;DHT22;21870;42.812;74.628;2023-03-11T04:28:41;24.40;80.30
35746;DHT22;21870;42.812;74.628;2023-03-11T04:31:07;24.50;80.40
35746;DHT22;21870;42.812;74.628;2023-03-11T04:33:33;24.70;80.40
35746;DHT22;21870;42.812;74.628;2023-03-11T04:36:04;24.80;78.40
35746;DHT22;21870;42.812;74.628;2023-03-11T04:38:30;25.00;78.40
35746;DHT22;21870;42.812;74.628;2023-03-11T04:41:00;25.10;77.00
35746;DHT22;21870;42.812;74.628;2023-03-11T04:43:27;25.20;77.40
35746;DHT22;21870;42.812;74.628;2023-03-11T04:45:53;25.30;77.20
35746;DHT22;21870;42.812;74.628;2023-03-11T04:48:19;25.60;76.60
35746;DHT22;21870;42.812;74.628;2023-03-11T04:50:45;25.70;75.60
35746;DHT22;21870;42.812;74.628;2023-03-11T04:53:11;25.60;74.60
35746;DHT22;21870;42.812;74.628;2023-03-11T04:55:37;25.40;75.20
35746;DHT22;21870;42.812;74.628;2023-03-11T04:58:04;25.40;75.60
35746;DHT22;21870;42.812;74.628;2023-03-11T05:00:30;25.60;75.50
35746;DHT22;21870;42.812;74.628;2023-03-11T05:02:56;25.70;74.20
35746;DHT22;21870;42.812;74.628;2023-03-11T05:05:22;25.80;74.10
35746;DHT22;21870;42.812;74.628;2023-03-11T05:07:48;26.00;73.90
35746;DHT22;21870;42.812;74.628;2023-03-11T05:10:15;26.10;72.80
35746;DHT22;21870;42.812;74.628;2023-03-11T05:12:50;26.00;72.80
35746;DHT22;21870;42.812;74.628;2023-03-11T05:15:17;26.00;73.50
35746;DHT22;21870;42.812;74.628;2023-03-11T05:17:44;25.80;73.60
35746;DHT22;21870;42.812;74.628;2023-03-11T05:20:10;25.40;73.00
35746;DHT22;21870;42.812;74.628;2023-03-11T05:22:37;25.30;73.40
35746;DHT22;21870;42.812;74.628;2023-03-11T05:25:04;25.20;73.30
35746;DHT22;21870;42.812;74.628;2023-03-11T05:27:30;25.10;73.70
35746;DHT22;21870;42.812;74.628;2023-03-11T05:29:56;25.10;74.80
35746;DHT22;21870;42.812;74.628;2023-03-11T05:32:22;25.30;75.40
35746;DHT22;21870;42.812;74.628;2023-03-11T05:34:49;25.50;75.00
35746;DHT22;21870;42.812;74.628;2023-03-11T05:37:17;25.70;75.10
35746;DHT22;21870;42.812;74.628;2023-03-11T05:39:43;25.80;74.70
35746;DHT22;21870;42.812;74.628;2023-03-11T05:42:09;25.70;74.20
35746;DHT22;21870;42.812;74.628;2023-03-11T05:44:35;25.70;74.50
35746;DHT22;21870;42.812;74.628;2023-03-11T05:47:01;25.90;75.10
35746;DHT22;21870;42.812;74.628;2023-03-11T05:49:27;26.00;75.00
35746;DHT22;21870;42.812;74.628;2023-03-11T05:51:53;26.10;74.40
35746;DHT22;21870;42.812;74.628;2023-03-11T05:54:20;26.10;74.80
35746;DHT22;21870;42.812;74.628;2023-03-11T05:56:46;26.10;75.30
35746;DHT22;21870;42.812;74.628;2023-03-11T05:59:14;26.10;72.80
35746;DHT22;21870;42.812;74.628;2023-03-11T06:01:41;26.00;71.90
35746;DHT22;21870;42.812;74.628;2023-03-11T06:04:08;26.10;72.60
35746;DHT22;21870;42.812;74.628;2023-03-11T06:06:34;26.10;73.90
35746;DHT22;21870;42.812;74.628;2023-03-11T06:09:00;26.10;73.40
35746;DHT22;21870;42.812;74.628;2023-03-11T06:11:26;26.00;73.00
35746;DHT22;21870;42.812;74.628;2023-03-11T06:13:54;26.10;73.60
35746;DHT22;21870;42.812;74.628;2023-03-11T06:16:21;26.10;74.80
35746;DHT22;21870;42.812;74.628;2023-03-11T06:18:47;26.40;74.10
35746;DHT22;21870;42.812;74.628;2023-03-11T06:21:19;26.70;73.80
35746;DHT22;21870;42.812;74.628;2023-03-11T06:23:46;26.90;72.50
35746;DHT22;21870;42.812;74.628;2023-03-11T06:26:17;26.90;71.40
35746;DHT22;21870;42.812;74.628;2023-03-11T06:28:47;26.90;72.30
35746;DHT22;21870;42.812;74.628;2023-03-11T06:31:22;26.70;72.30
35746;DHT22;21870;42.812;74.628;2023-03-11T06:33:50;26.60;70.90
35746;DHT22;21870;42.812;74.628;2023-03-11T06:36:18;26.40;71.00
35746;DHT22;21870;42.812;74.628;2023-03-11T06:38:45;26.50;71.30
35746;DHT22;21870;42.812;74.628;2023-03-11T06:41:15;26.50;68.80
35746;DHT22;21870;42.812;74.628;2023-03-11T06:43:41;26.60;68.30
35746;DHT22;21870;42.812;74.628;2023-03-11T06:46:09;26.70;67.80
35746;DHT22;21870;42.812;74.628;2023-03-11T06:48:35;27.00;68.50
35746;DHT22;21870;42.812;74.628;2023-03-11T06:51:02;27.20;68.60
35746;DHT22;21870;42.812;74.628;2023-03-11T06:53:28;27.30;68.60
35746;DHT22;21870;42.812;74.628;2023-03-11T06:56:04;27.30;68.40
35746;DHT22;21870;42.812;74.628;2023-03-11T06:58:32;27.40;68.20
35746;DHT22;21870;42.812;74.628;2023-03-11T07:01:04;27.60;68.30
35746;DHT22;21870;42.812;74.628;2023-03-11T07:03:30;27.60;68.30
35746;DHT22;21870;42.812;74.628;2023-03-11T07:05:57;27.50;67.10
35746;DHT22;21870;42.812;74.628;2023-03-11T07:08:24;27.50;67.20
35746;DHT22;21870;42.812;74.628;2023-03-11T07:11:03;27.40;67.20
35746;DHT22;21870;42.812;74.628;2023-03-11T07:13:30;27.40;66.40
35746;DHT22;21870;42.812;74.628;2023-03-11T07:18:30;28.00;66.80
35746;DHT22;21870;42.812;74.628;2023-03-11T07:20:56;28.40;68.00
35746;DHT22;21870;42.812;74.628;2023-03-11T07:23:23;28.80;66.90
35746;DHT22;21870;42.812;74.628;2023-03-11T07:25:49;29.00;66.20
35746;DHT22;21870;42.812;74.628;2023-03-11T07:28:17;28.90;65.70
35746;DHT22;21870;42.812;74.628;2023-03-11T07:30:43;29.00;64.00
35746;DHT22;21870;42.812;74.628;2023-03-11T07:33:11;29.00;64.50
35746;DHT22;21870;42.812;74.628;2023-03-11T07:35:38;28.80;64.60
35746;DHT22;21870;42.812;74.628;2023-03-11T07:38:04;28.80;64.80
35746;DHT22;21870;42.812;74.628;2023-03-11T07:40:30;28.70;65.10
35746;DHT22;21870;42.812;74.628;2023-03-11T07:42:56;28.60;64.50
35746;DHT22;21870;42.812;74.628;2023-03-11T07:45:23;28.50;64.20
35746;DHT22;21870;42.812;74.628;2023-03-11T07:47:49;28.50;64.50
35746;DHT22;21870;42.812;74.628;2023-03-11T07:50:15;28.50;64.60
35746;DHT22;21870;42.812;74.628;2023-03-11T07:52:42;28.50;64.80
35746;DHT22;21870;42.812;74.628;2023-03-11T07:55:09;28.40;63.30
35746;DHT22;21870;42.812;74.628;2023-03-11T07:57:35;28.30;64.40
35746;DHT22;21870;42.812;74.628;2023-03-11T08:00:01;28.30;64.00
35746;DHT22;21870;42.812;74.628;2023-03-11T08:02:27;28.20;63.10
35746;DHT22;21870;42.812;74.628;2023-03-11T08:04:54;28.40;63.40
35746;DHT22;21870;42.812;74.628;2023-03-11T08:07:20;28.50;63.10
35746;DHT22;21870;42.812;74.628;2023-03-11T08:09:47;28.70;63.20
35746;DHT22;21870;42.812;74.628;2023-03-11T08:12:13;28.70;62.90
35746;DHT22;21870;42.812;74.628;2023-03-11T08:14:39;28.50;61.80
35746;DHT22;21870;42.812;74.628;2023-03-11T08:17:05;28.50;61.80
35746;DHT22;21870;42.812;74.628;2023-03-11T08:19:31;28.40;62.20
35746;DHT22;21870;42.812;74.628;2023-03-11T08:22:03;28.40;62.20
35746;DHT22;21870;42.812;74.628;2023-03-11T08:24:29;28.50;62.30
35746;DHT22;21870;42.812;74.628;2023-03-11T08:26:55;28.50;62.00
35746;DHT22;21870;42.812;74.628;2023-03-11T08:29:23;28.60;61.80
35746;DHT22;21870;42.812;74.628;2023-03-11T08:31:49;28.50;61.60
35746;DHT22;21870;42.812;74.628;2023-03-11T08:34:15;28.50;62.20
35746;DHT22;21870;42.812;74.628;2023-03-11T08:36:42;28.40;62.00
35746;DHT22;21870;42.812;74.628;2023-03-11T08:39:08;28.50;62.20
35746;DHT22;21870;42.812;74.628;2023-03-11T08:41:34;28.80;63.30
35746;DHT22;21870;42.812;74.628;2023-03-11T08:44:00;28.90;61.70
35746;DHT22;21870;42.812;74.628;2023-03-11T08:46:32;29.20;63.10
35746;DHT22;21870;42.812;74.628;2023-03-11T08:48:58;29.50;61.40
35746;DHT22;21870;42.812;74.628;2023-03-11T08:51:25;29.80;60.90
35746;DHT22;21870;42.812;74.628;2023-03-11T08:53:52;29.90;60.70
35746;DHT22;21870;42.812;74.628;2023-03-11T08:56:19;29.90;60.00
35746;DHT22;21870;42.812;74.628;2023-03-11T08:58:45;30.20;59.40
35746;DHT22;21870;42.812;74.628;2023-03-11T09:01:12;30.20;59.80
35746;DHT22;21870;42.812;74.628;2023-03-11T09:03:39;30.30;60.10
35746;DHT22;21870;42.812;74.628;2023-03-11T09:06:07;30.30;59.00
35746;DHT22;21870;42.812;74.628;2023-03-11T09:08:34;30.00;58.90
35746;DHT22;21870;42.812;74.628;2023-03-11T09:11:00;29.70;59.60
35746;DHT22;21870;42.812;74.628;2023-03-11T09:13:26;29.40;59.00
35746;DHT22;21870;42.812;74.628;2023-03-11T09:15:53;29.20;59.50
35746;DHT22;21870;42.812;74.628;2023-03-11T09:18:20;29.10;59.50
35746;DHT22;21870;42.812;74.628;2023-03-11T09:20:47;29.00;59.00
35746;DHT22;21870;42.812;74.628;2023-03-11T09:23:14;29.20;60.80
35746;DHT22;21870;42.812;74.628;2023-03-11T09:25:41;29.10;60.20
35746;DHT22;21870;42.812;74.628;2023-03-11T09:28:07;29.40;60.10
35746;DHT22;21870;42.812;74.628;2023-03-11T09:30:34;29.20;59.90
35746;DHT22;21870;42.812;74.628;2023-03-11T09:33:00;29.10;59.70
35746;DHT22;21870;42.812;74.628;2023-03-11T09:35:27;29.50;59.90
35746;DHT22;21870;42.812;74.628;2023-03-11T09:37:53;29.80;59.70
35746;DHT22;21870;42.812;74.628;2023-03-11T09:40:21;30.00;59.40
35746;DHT22;21870;42.812;74.628;2023-03-11T09:43:03;30.20;59.10
35746;DHT22;21870;42.812;74.628;2023-03-11T09:45:35;30.70;59.90
35746;DHT22;21870;42.812;74.628;2023-03-11T09:48:24;30.90;58.30
35746;DHT22;21870;42.812;74.628;2023-03-11T09:50:59;31.00;56.80
35746;DHT22;21870;42.812;74.628;2023-03-11T09:53:43;31.10;57.50
35746;DHT22;21870;42.812;74.628;2023-03-11T09:56:14;31.10;57.50
35746;DHT22;21870;42.812;74.628;2023-03-11T09:58:50;31.20;57.50
35746;DHT22;21870;42.812;74.628;2023-03-11T10:01:26;31.20;57.30
35746;DHT22;21870;42.812;74.628;2023-03-11T10:06:34;31.20;57.60
35746;DHT22;21870;42.812;74.628;2023-03-11T10:20:24;31.20;56.80
35746;DHT22;21870;42.812;74.628;2023-03-11T10:28:47;30.40;64.50
35746;DHT22;21870;42.812;74.628;2023-03-11T10:34:02;30.60;67.90
35746;DHT22;21870;42.812;74.628;2023-03-11T10:36:37;30.80;67.70
35746;DHT22;21870;42.812;74.628;2023-03-11T10:39:05;30.90;67.10
35746;DHT22;21870;42.812;74.628;2023-03-11T10:41:39;30.80;65.30
35746;DHT22;21870;42.812;74.628;2023-03-11T10:44:30;30.70;64.60
35746;DHT22;21870;42.812;74.628;2023-03-11T10:46:57;30.60;65.60
35746;DHT22;21870;42.812;74.628;2023-03-11T10:49:23;30.50;65.70
35746;DHT22;21870;42.812;74.628;2023-03-11T10:51:51;30.50;64.90
35746;DHT22;21870;42.812;74.628;2023-03-11T10:54:27;30.60;65.60
35746;DHT22;21870;42.812;74.628;2023-03-11T10:57:05;30.70;66.00
35746;DHT22;21870;42.812;74.628;2023-03-11T10:59:49;30.70;64.20
35746;DHT22;21870;42.812;74.628;2023-03-11T11:07:42;30.20;64.30
35746;DHT22;21870;42.812;74.628;2023-03-11T11:13:00;30.20;65.80
35746;DHT22;21870;42.812;74.628;2023-03-11T11:15:33;30.20;65.60
35746;DHT22;21870;42.812;74.628;2023-03-11T11:26:04;30.00;66.10
35746;DHT22;21870;42.812;74.628;2023-03-11T11:28:32;29.90;66.00
35746;DHT22;21870;42.812;74.628;2023-03-11T11:31:04;29.80;66.40
35746;DHT22;21870;42.812;74.628;2023-03-11T11:33:51;29.80;66.30
35746;DHT22;21870;42.812;74.628;2023-03-11T11:36:21;29.70;67.90
35746;DHT22;21870;42.812;74.628;2023-03-11T11:38:51;29.70;67.90
35746;DHT22;21870;42.812;74.628;2023-03-11T11:41:21;29.70;68.10
35746;DHT22;21870;42.812;74.628;2023-03-11T11:44:18;29.60;67.40
35746;DHT22;21870;42.812;74.628;2023-03-11T11:46:50;29.50;68.60
35746;DHT22;21870;42.812;74.628;2023-03-11T11:49:23;29.40;67.90
35746;DHT22;21870;42.812;74.628;2023-03-11T11:56:55;29.10;67.40
35746;DHT22;21870;42.812;74.628;2023-03-11T11:59:22;29.00;68.60
35746;DHT22;21870;42.812;74.628;2023-03-11T12:15:38;28.10;70.70
35746;DHT22;21870;42.812;74.628;2023-03-11T12:18:12;27.90;71.90
35746;DHT22;21870;42.812;74.628;2023-03-11T12:20:45;27.80;72.10
35746;DHT22;21870;42.812;74.628;2023-03-11T12:26:00;27.30;72.60
35746;DHT22;21870;42.812;74.628;2023-03-11T12:28:36;27.20;72.70
35746;DHT22;21870;42.812;74.628;2023-03-11T12:31:07;27.10;73.10
35746;DHT22;21870;42.812;74.628;2023-03-11T12:33:49;26.90;74.00
35746;DHT22;21870;42.812;74.628;2023-03-11T12:36:33;26.80;74.80
35746;DHT22;21870;42.812;74.628;2023-03-11T12:39:02;26.60;75.40
35746;DHT22;21870;42.812;74.628;2023-03-11T12:41:38;26.30;74.50
35746;DHT22;21870;42.812;74.628;2023-03-11T12:44:42;26.20;74.50
35746;DHT22;21870;42.812;74.628;2023-03-11T12:47:18;25.90;75.20
35746;DHT22;21870;42.812;74.628;2023-03-11T12:49:46;25.80;75.70
35746;DHT22;21870;42.812;74.628;2023-03-11T12:54:43;25.40;78.20
35746;DHT22;21870;42.812;74.628;2023-03-11T13:05:41;24.50;77.90
35746;DHT22;21870;42.812;74.628;2023-03-11T13:08:21;24.30;78.50
35746;DHT22;21870;42.812;74.628;2023-03-11T13:10:53;24.10;78.60
35746;DHT22;21870;42.812;74.628;2023-03-11T13:15:55;23.70;78.30
35746;DHT22;21870;42.812;74.628;2023-03-11T13:18:24;23.60;78.40
35746;DHT22;21870;42.812;74.628;2023-03-11T13:20:53;23.50;78.70
35746;DHT22;21870;42.812;74.628;2023-03-11T13:23:29;23.40;79.20
35746;DHT22;21870;42.812;74.628;2023-03-11T13:26:22;23.30;79.20
35746;DHT22;21870;42.812;74.628;2023-03-11T13:29:35;23.30;79.10
35746;DHT22;21870;42.812;74.628;2023-03-11T13:38:16;22.90;78.70
35746;DHT22;21870;42.812;74.628;2023-03-11T13:40:46;22.80;78.50
35746;DHT22;21870;42.812;74.628;2023-03-11T13:43:19;22.70;79.30
35746;DHT22;21870;42.812;74.628;2023-03-11T13:49:02;22.30;81.50
35746;DHT22;21870;42.812;74.628;2023-03-11T13:51:48;22.20;82.20
35746;DHT22;21870;42.812;74.628;2023-03-11T13:54:21;22.00;82.90
35746;DHT22;21870;42.812;74.628;2023-03-11T13:56:54;21.90;83.20
35746;DHT22;21870;42.812;74.628;2023-03-11T13:59:27;21.80;83.50
35746;DHT22;21870;42.812;74.628;2023-03-11T14:02:12;21.70;83.90
35746;DHT22;21870;42.812;74.628;2023-03-11T14:04:43;21.60;84.10
35746;DHT22;21870;42.812;74.628;2023-03-11T14:07:13;21.50;84.40
35746;DHT22;21870;42.812;74.628;2023-03-11T14:09:44;21.40;84.90
35746;DHT22;21870;42.812;74.628;2023-03-11T14:12:11;21.20;86.00
35746;DHT22;21870;42.812;74.628;2023-03-11T14:17:16;20.90;88.30
35746;DHT22;21870;42.812;74.628;2023-03-11T14:19:42;20.70;89.30
35746;DHT22;21870;42.812;74.628;2023-03-11T14:22:09;20.50;89.70
35746;DHT22;21870;42.812;74.628;2023-03-11T14:24:36;20.30;90.10
35746;DHT22;21870;42.812;74.628;2023-03-11T14:27:08;20.20;90.30
35746;DHT22;21870;42.812;74.628;2023-03-11T14:29:35;20.20;90.50
35746;DHT22;21870;42.812;74.628;2023-03-11T14:32:27;20.10;90.90
35746;DHT22;21870;42.812;74.628;2023-03-11T14:34:55;20.00;90.90
35746;DHT22;21870;42.812;74.628;2023-03-11T14:37:33;19.90;91.20
35746;DHT22;21870;42.812;74.628;2023-03-11T14:40:02;19.90;91.40
35746;DHT22;21870;42.812;74.628;2023-03-11T14:42:34;19.80;91.40
35746;DHT22;21870;42.812;74.628;2023-03-11T14:45:15;19.80;91.50
35746;DHT22;21870;42.812;74.628;2023-03-11T14:47:54;19.80;91.80
35746;DHT22;21870;42.812;74.628;2023-03-11T14:50:28;19.70;91.80
35746;DHT22;21870;42.812;74.628;2023-03-11T14:52:57;19.70;91.90
35746;DHT22;21870;42.812;74.628;2023-03-11T14:55:36;19.70;91.90
35746;DHT22;21870;42.812;74.628;2023-03-11T14:58:33;19.70;92.00
35746;DHT22;21870;42.812;74.628;2023-03-11T15:01:08;19.60;92.20
35746;DHT22;21870;42.812;74.628;2023-03-11T15:06:23;19.60;92.10
35746;DHT22;21870;42.812;74.628;2023-03-11T15:08:55;19.60;92.20
35746;DHT22;21870;42.812;74.628;2023-03-11T15:11:23;19.50;92.40
35746;DHT22;21870;42.812;74.628;2023-03-11T15:13:51;19.50;92.30
35746;DHT22;21870;42.812;74.628;2023-03-11T15:16:32;19.50;92.40
35746;DHT22;21870;42.812;74.628;2023-03-11T15:21:49;19.40;92.60
35746;DHT22;21870;42.812;74.628;2023-03-11T15:24:24;19.40;92.70
35746;DHT22;21870;42.812;74.628;2023-03-11T15:27:15;19.30;92.80
35746;DHT22;21870;42.812;74.628;2023-03-11T15:29:51;19.30;92.90
35746;DHT22;21870;42.812;74.628;2023-03-11T15:32:37;19.20;92.90
35746;DHT22;21870;42.812;74.628;2023-03-11T15:37:36;19.10;93.40
35746;DHT22;21870;42.812;74.628;2023-03-11T15:40:20;19.00;93.50
35746;DHT22;21870;42.812;74.628;2023-03-11T15:42:48;19.00;93.70
35746;DHT22;21870;42.812;74.628;2023-03-11T15:45:18;19.00;93.30
35746;DHT22;21870;42.812;74.628;2023-03-11T15:47:46;19.00;93.60
35746;DHT22;21870;42.812;74.628;2023-03-11T15:50:30;19.10;94.10
35746;DHT22;21870;42.812;74.628;2023-03-11T15:52:57;19.20;94.00
35746;DHT22;21870;42.812;74.628;2023-03-11T15:55:25;19.30;93.90
35746;DHT22;21870;42.812;74.628;2023-03-11T15:58:04;19.30;94.10
35746;DHT22;21870;42.812;74.628;2023-03-11T16:00:31;19.40;94.00
35746;DHT22;21870;42.812;74.628;2023-03-11T16:02:57;19.40;93.80
35746;DHT22;21870;42.812;74.628;2023-03-11T16:05:24;19.40;94.00
35746;DHT22;21870;42.812;74.628;2023-03-11T16:07:50;19.40;94.30
35746;DHT22;21870;42.812;74.628;2023-03-11T16:10:22;19.30;94.20
35746;DHT22;21870;42.812;74.628;2023-03-11T16:12:54;19.30;93.80
35746;DHT22;21870;42.812;74.628;2023-03-11T16:15:33;19.40;93.90
35746;DHT22;21870;42.812;74.628;2023-03-11T16:18:02;19.50;94.30
35746;DHT22;21870;42.812;74.628;2023-03-11T16:20:33;19.60;94.40
35746;DHT22;21870;42.812;74.628;2023-03-11T16:23:02;19.60;94.40
35746;DHT22;21870;42.812;74.628;2023-03-11T16:25:37;19.70;95.00
35746;DHT22;21870;42.812;74.628;2023-03-11T16:28:03;19.70;94.80
35746;DHT22;21870;42.812;74.628;2023-03-11T16:30:31;19.80;95.00
35746;DHT22;21870;42.812;74.628;2023-03-11T16:32:57;19.80;95.20
35746;DHT22;21870;42.812;74.628;2023-03-11T16:35:26;19.90;95.30
35746;DHT22;21870;42.812;74.628;2023-03-11T16:37:53;19.90;95.70
35746;DHT22;21870;42.812;74.628;2023-03-11T16:40:22;19.90;96.20
35746;DHT22;21870;42.812;74.628;2023-03-11T16:42:54;19.80;96.50
35746;DHT22;21870;42.812;74.628;2023-03-11T16:45:21;19.80;97.10
35746;DHT22;21870;42.812;74.628;2023-03-11T16:47:47;19.70;97.20
35746;DHT22;21870;42.812;74.628;2023-03-11T16:50:14;19.70;97.40
35746;DHT22;21870;42.812;74.628;2023-03-11T16:52:40;19.70;97.70
35746;DHT22;21870;42.812;74.628;2023-03-11T16:55:06;19.70;97.90
35746;DHT22;21870;42.812;74.628;2023-03-11T16:57:33;19.70;98.00
35746;DHT22;21870;42.812;74.628;2023-03-11T16:59:59;19.70;98.20
35746;DHT22;21870;42.812;74.628;2023-03-11T17:02:25;19.70;98.30
35746;DHT22;21870;42.812;74.628;2023-03-11T17:04:51;19.70;98.10
35746;DHT22;21870;42.812;74.628;2023-03-11T17:07:20;19.70;97.70